createdAt,value
2022-11-03T00:14:53.702Z,9.8
2022-11-03T00:29:53.700Z,9.8
2022-11-03T00:44:53.645Z,9.9
2022-11-03T00:59:53.645Z,9.9
2022-11-03T01:14:53.616Z,9.9
2022-11-03T01:29:53.586Z,9.5
2022-11-03T01:44:53.592Z,9.5
2022-11-03T01:59:53.549Z,9.5
2022-11-03T02:14:53.540Z,9.3
2022-11-03T02:29:53.523Z,9.1
2022-11-03T02:44:53.516Z,8.6
2022-11-03T02:59:53.534Z,8.6
2022-11-03T03:14:53.503Z,8.6
2022-11-03T03:29:53.513Z,8.5
2022-11-03T03:44:53.439Z,8.8
2022-11-03T03:59:53.473Z,8.7
2022-11-03T04:14:53.414Z,8.6
2022-11-03T04:29:53.430Z,8.2
2022-11-03T04:44:53.388Z,7.9
2022-11-03T04:59:53.407Z,8.1
2022-11-03T05:14:58.037Z,8
2022-11-03T05:29:55.179Z,8
2022-11-03T05:44:53.331Z,8.2
2022-11-03T05:59:53.361Z,8.2
2022-11-03T06:14:53.299Z,8.1
2022-11-03T06:29:53.312Z,7.9
2022-11-03T06:44:53.279Z,8.1
2022-11-03T07:00:06.568Z,8.2
2022-11-03T07:14:53.271Z,8.2
2022-11-03T07:29:53.272Z,8.6
2022-11-03T07:44:53.230Z,9.2
2022-11-03T07:59:53.233Z,9.3
2022-11-03T08:14:53.198Z,9.5
2022-11-03T08:29:53.211Z,9.8
2022-11-03T08:44:53.152Z,10.1
2022-11-03T08:59:53.166Z,10.5
2022-11-03T09:14:53.122Z,11
2022-11-03T09:30:12.374Z,12
2022-11-03T09:44:53.089Z,12.4
2022-11-03T09:59:53.093Z,12.6
2022-11-03T10:14:53.059Z,12.6
2022-11-03T10:29:57.928Z,12.1
2022-11-03T10:44:53.035Z,11.6
2022-11-03T10:59:53.028Z,11.1
2022-11-03T11:14:52.996Z,11.3
2022-11-03T11:29:52.992Z,11.4
2022-11-03T11:44:52.968Z,11.8
2022-11-03T11:59:52.936Z,12.2
2022-11-03T12:14:52.881Z,12.5
2022-11-03T12:29:52.881Z,12.3
2022-11-03T12:44:52.830Z,11.8
2022-11-03T12:59:52.866Z,11.8
2022-11-03T13:14:52.822Z,11.8
2022-11-03T13:29:52.847Z,11.9
2022-11-03T13:44:52.826Z,11.8
2022-11-03T13:59:52.787Z,11.9
2022-11-03T14:14:52.746Z,11.9
2022-11-03T14:29:52.737Z,11.8
2022-11-03T14:59:53.684Z,11.9
2022-11-03T15:14:52.652Z,11.9
2022-11-03T15:29:52.668Z,11.8
2022-11-03T15:44:52.638Z,11.7
2022-11-03T15:59:55.239Z,11.7
2022-11-03T16:14:52.598Z,11.6
2022-11-03T16:29:52.611Z,11.8
2022-11-03T16:44:52.562Z,11.8
2022-11-03T16:59:52.569Z,11.7
2022-11-03T17:14:55.646Z,11.6
2022-11-03T17:29:52.533Z,11.5
2022-11-03T17:44:52.475Z,11.5
2022-11-03T17:59:52.491Z,11.3
2022-11-03T18:14:52.443Z,11.3
2022-11-03T18:29:52.488Z,11.2
2022-11-03T18:44:52.415Z,11.1
2022-11-03T19:14:52.363Z,11.1
2022-11-03T19:29:52.376Z,11.1
2022-11-03T19:44:52.334Z,11.3
2022-11-03T19:59:52.365Z,11.4
2022-11-03T20:14:52.325Z,11.4
2022-11-03T20:29:52.323Z,11.4
2022-11-03T20:44:52.279Z,11.6
2022-11-03T20:59:52.278Z,11.7
2022-11-03T21:14:52.254Z,11.6
2022-11-03T21:29:59.403Z,11.9
2022-11-03T21:44:52.218Z,12
2022-11-03T21:59:52.225Z,11.5
2022-11-03T22:14:52.159Z,10.6
2022-11-03T22:29:52.178Z,10.2
2022-11-03T22:44:52.133Z,9.9
2022-11-03T22:59:52.139Z,9.6
2022-11-03T23:14:52.121Z,9.4
2022-11-03T23:29:52.128Z,9.1
2022-11-03T23:44:52.074Z,9.3
2022-11-03T23:59:52.101Z,9.2
